createdAt,value
2023-02-18T00:04:47.077Z,279.17
2023-02-18T00:09:54.250Z,279.58
2023-02-18T00:15:01.427Z,279.04
2023-02-18T00:20:08.635Z,279.41
2023-02-18T00:25:15.787Z,278.80
2023-02-18T00:30:23.026Z,278.62
2023-02-18T00:35:30.264Z,278.05
2023-02-18T00:40:37.345Z,278.34
2023-02-18T00:45:44.521Z,278.79
2023-02-18T00:50:51.750Z,279.91
2023-02-18T00:55:58.892Z,280.06
2023-02-18T01:01:07.548Z,279.91
2023-02-18T01:06:13.505Z,280.72
2023-02-18T01:11:20.731Z,280.63
2023-02-18T01:16:27.919Z,281.28
2023-02-18T01:21:35.145Z,281.15
2023-02-18T01:26:42.221Z,281.26
2023-02-18T01:31:49.569Z,281.57
2023-02-18T01:36:56.821Z,282.62
2023-02-18T01:42:03.969Z,282.15
2023-02-18T01:47:11.152Z,282.94
2023-02-18T01:52:18.364Z,282.80
2023-02-18T01:57:25.522Z,283.44
2023-02-18T02:02:32.719Z,283.90
2023-02-18T02:07:39.899Z,282.99
2023-02-18T02:12:47.064Z,282.95
2023-02-18T02:17:54.281Z,283.65
2023-02-18T02:23:01.487Z,284.42
2023-02-18T02:28:08.723Z,284.56
2023-02-18T02:33:16.072Z,284.69
2023-02-18T02:38:23.308Z,285.97
2023-02-18T02:43:30.489Z,285.97
2023-02-18T02:48:37.730Z,286.58
2023-02-18T02:53:44.974Z,286.39
2023-02-18T02:58:52.144Z,286.39
2023-02-18T03:03:59.326Z,287.09
2023-02-18T03:09:06.535Z,288.15
2023-02-18T03:14:13.721Z,288.63
2023-02-18T03:19:20.912Z,288.00
2023-02-18T03:24:28.187Z,288.68
2023-02-18T03:29:35.326Z,288.39
2023-02-18T03:34:42.555Z,287.68
2023-02-18T03:39:49.767Z,287.85
2023-02-18T03:44:56.998Z,288.93
2023-02-18T03:50:04.213Z,288.89
2023-02-18T03:55:11.417Z,288.49
2023-02-18T04:00:18.563Z,287.79
2023-02-18T04:05:25.741Z,286.11
2023-02-18T04:10:32.962Z,286.55
2023-02-18T04:15:40.158Z,285.68
2023-02-18T04:20:47.398Z,286.11
2023-02-18T04:25:54.628Z,286.70
2023-02-18T04:31:01.986Z,287.08
2023-02-18T04:36:09.392Z,286.69
2023-02-18T04:41:16.286Z,286.04
2023-02-18T04:46:23.355Z,286.05
2023-02-18T04:51:30.505Z,285.19
2023-02-18T04:56:37.746Z,285.16
2023-02-18T05:01:44.922Z,285.22
2023-02-18T05:06:52.145Z,285.45
2023-02-18T05:11:59.367Z,286.71
2023-02-18T05:17:06.542Z,287.87
2023-02-18T05:22:13.910Z,288.48
2023-02-18T05:27:21.106Z,289.60
2023-02-18T05:32:28.286Z,290.48
2023-02-18T05:37:35.449Z,289.87
2023-02-18T05:42:42.700Z,289.40
2023-02-18T05:47:49.932Z,289.88
2023-02-18T05:52:57.120Z,289.03
2023-02-18T05:58:04.304Z,289.26
2023-02-18T06:03:11.438Z,288.54
2023-02-18T06:08:18.590Z,288.46
2023-02-18T06:13:25.787Z,288.95
2023-02-18T06:18:32.950Z,289.10
2023-02-18T06:23:40.222Z,289.14
2023-02-18T06:28:47.558Z,288.90
2023-02-18T06:33:54.603Z,289.02
2023-02-18T06:39:01.798Z,288.62
2023-02-18T06:44:09.009Z,289.07
2023-02-18T06:49:16.120Z,288.89
2023-02-18T06:54:23.325Z,288.96
2023-02-18T06:59:30.549Z,289.07
2023-02-18T07:04:37.689Z,288.83
2023-02-18T07:09:44.874Z,288.53
2023-02-18T07:14:52.085Z,288.18
2023-02-18T07:19:59.237Z,288.07
2023-02-18T07:25:06.456Z,288.82
2023-02-18T07:30:13.704Z,289.45
2023-02-18T07:35:20.858Z,289.08
2023-02-18T07:40:28.049Z,289.93
2023-02-18T07:45:35.357Z,290.03
2023-02-18T07:50:42.511Z,289.63
2023-02-18T07:55:49.797Z,289.68
2023-02-18T08:00:57.107Z,289.55
2023-02-18T08:06:04.240Z,289.39
2023-02-18T08:11:18.992Z,289.29
2023-02-18T08:16:18.727Z,289.22
2023-02-18T08:21:25.847Z,289.18
2023-02-18T08:26:33.098Z,288.71
2023-02-18T08:31:41.080Z,288.76
2023-02-18T08:36:47.573Z,288.39
2023-02-18T08:41:54.761Z,288.41
2023-02-18T08:47:02.087Z,288.83
2023-02-18T08:52:09.294Z,288.98
2023-02-18T08:57:16.478Z,289.44
2023-02-18T09:02:23.688Z,289.19
2023-02-18T09:07:30.933Z,289.04
2023-02-18T09:12:38.126Z,289.34
2023-02-18T09:17:45.360Z,290.25
2023-02-18T09:22:52.578Z,290.30
2023-02-18T09:27:59.792Z,290.88
2023-02-18T09:33:07.014Z,291.06
2023-02-18T09:38:14.149Z,291.86
2023-02-18T09:43:21.419Z,292.98
2023-02-18T09:48:28.628Z,293.83
2023-02-18T09:53:35.811Z,294.36
2023-02-18T09:58:42.979Z,295.17
2023-02-18T10:03:50.202Z,294.84
2023-02-18T10:08:57.363Z,295.12
2023-02-18T10:14:04.541Z,295.13
2023-02-18T10:19:11.765Z,295.92
2023-02-18T10:24:19.022Z,295.81
2023-02-18T10:29:26.211Z,296.35
2023-02-18T10:34:33.381Z,296.45
2023-02-18T10:39:40.780Z,297.16
2023-02-18T10:44:47.990Z,296.83
2023-02-18T10:49:55.244Z,297.08
2023-02-18T10:55:02.416Z,296.67
2023-02-18T11:00:09.588Z,297.53
2023-02-18T11:05:16.816Z,297.65
2023-02-18T11:10:23.972Z,297.52
2023-02-18T11:15:31.147Z,298.54
2023-02-18T11:20:38.352Z,299.61
2023-02-18T11:25:45.647Z,299.99
2023-02-18T11:30:52.917Z,301.01
2023-02-18T11:36:00.118Z,301.81
2023-02-18T11:41:07.784Z,302.82
2023-02-18T11:46:14.447Z,303.19
2023-02-18T11:51:21.708Z,303.78
2023-02-18T11:56:28.830Z,304.85
2023-02-18T12:01:36.127Z,305.50
2023-02-18T12:06:43.412Z,306.72
2023-02-18T12:11:50.660Z,307.86
2023-02-18T12:16:57.786Z,308.86
2023-02-18T12:22:04.983Z,310.19
2023-02-18T12:27:12.145Z,310.26
2023-02-18T12:32:19.376Z,310.82
2023-02-18T12:37:26.786Z,311.13
2023-02-18T12:42:34.089Z,311.67
2023-02-18T12:47:41.580Z,312.98
2023-02-18T12:52:49.222Z,313.17
2023-02-18T12:57:56.571Z,312.51
2023-02-18T13:03:04.070Z,313.19
2023-02-18T13:08:11.461Z,313.40
2023-02-18T13:13:18.536Z,314.65
2023-02-18T13:18:25.774Z,316.31
2023-02-18T13:23:32.999Z,316.93
2023-02-18T13:28:40.281Z,318.01
2023-02-18T13:33:47.643Z,318.34
2023-02-18T13:38:54.873Z,319.75
2023-02-18T13:44:02.223Z,320.43
2023-02-18T13:49:09.550Z,320.61
2023-02-18T13:54:17.130Z,321.52
2023-02-18T13:59:24.705Z,321.20
2023-02-18T14:04:32.331Z,321.39
2023-02-18T14:09:39.674Z,321.82
2023-02-18T14:14:47.126Z,322.87
2023-02-18T14:19:54.529Z,322.82
2023-02-18T14:25:01.751Z,323.01
2023-02-18T14:30:09.041Z,322.40
2023-02-18T14:35:16.266Z,322.19
2023-02-18T14:40:23.787Z,322.16
2023-02-18T14:45:31.130Z,321.11
2023-02-18T14:50:38.373Z,321.62
2023-02-18T14:55:45.646Z,321.37
2023-02-18T15:00:52.810Z,322.46
2023-02-18T15:05:59.985Z,321.33
2023-02-18T15:11:07.188Z,321.15
2023-02-18T15:16:14.703Z,321.56
2023-02-18T15:21:21.942Z,321.37
2023-02-18T15:26:29.453Z,321.83
2023-02-18T15:31:37.009Z,321.58
2023-02-18T15:36:44.090Z,321.67
2023-02-18T15:41:51.300Z,321.24
2023-02-18T15:46:58.435Z,321.23
2023-02-18T15:52:05.921Z,321.42
2023-02-18T15:57:13.396Z,321.58
2023-02-18T16:02:20.988Z,322.08
2023-02-18T16:07:28.711Z,321.78
2023-02-18T16:12:36.344Z,322.04
2023-02-18T16:17:43.709Z,322.21
2023-02-18T16:22:51.141Z,322.51
2023-02-18T16:27:58.581Z,322.23
2023-02-18T16:33:05.846Z,321.92
2023-02-18T16:38:13.291Z,321.64
2023-02-18T16:43:20.913Z,321.68
2023-02-18T16:48:28.592Z,321.82
2023-02-18T16:53:36.069Z,321.51
2023-02-18T16:58:43.640Z,322.01
2023-02-18T17:03:51.449Z,321.28
2023-02-18T17:08:59.156Z,320.84
2023-02-18T17:14:06.898Z,321.25
2023-02-18T17:19:14.316Z,320.74
2023-02-18T17:24:21.899Z,320.88
2023-02-18T17:29:29.539Z,320.63
2023-02-18T17:34:37.151Z,320.12
2023-02-18T17:39:44.433Z,319.85
2023-02-18T17:44:51.996Z,319.21
2023-02-18T17:49:59.561Z,318.77
2023-02-18T17:55:07.193Z,318.43
2023-02-18T18:00:14.935Z,318.70
2023-02-18T18:05:22.511Z,318.41
2023-02-18T18:10:30.125Z,318.21
2023-02-18T18:15:37.760Z,318.75
2023-02-18T18:20:45.168Z,317.76
2023-02-18T18:25:52.653Z,316.76
2023-02-18T18:31:00.317Z,316.48
2023-02-18T18:36:08.310Z,316.33
2023-02-18T18:41:15.402Z,316.06
2023-02-18T18:46:23.008Z,315.93
2023-02-18T18:51:30.544Z,315.83
2023-02-18T18:56:39.281Z,315.80
2023-02-18T19:01:46.710Z,316.02
2023-02-18T19:06:54.108Z,316.03
2023-02-18T19:12:01.700Z,315.04
2023-02-18T19:17:09.101Z,315.31
2023-02-18T19:22:16.605Z,314.29
2023-02-18T19:27:24.243Z,313.71
2023-02-18T19:32:31.876Z,313.27
2023-02-18T19:37:39.463Z,313.39
2023-02-18T19:42:47.287Z,312.07
2023-02-18T19:47:54.758Z,312.80
2023-02-18T19:53:02.012Z,312.52
2023-02-18T19:58:09.521Z,312.19
2023-02-18T20:03:16.898Z,311.98
2023-02-18T20:08:24.344Z,311.17
2023-02-18T20:13:31.690Z,311.48
2023-02-18T20:18:39.179Z,310.69
2023-02-18T20:23:46.773Z,310.67
2023-02-18T20:28:54.390Z,311.39
2023-02-18T20:34:02.031Z,311.30
2023-02-18T20:39:16.203Z,311.25
2023-02-18T20:44:16.922Z,311.16
2023-02-18T20:49:25.068Z,310.73
2023-02-18T20:54:32.454Z,309.74
2023-02-18T20:59:40.084Z,310.38
2023-02-18T21:04:47.432Z,309.94
2023-02-18T21:09:54.614Z,309.66
2023-02-18T21:15:02.105Z,309.87
2023-02-18T21:20:09.744Z,309.61
2023-02-18T21:25:16.957Z,309.29
2023-02-18T21:30:24.584Z,309.49
2023-02-18T21:35:32.169Z,309.68
2023-02-18T21:40:40.667Z,309.84
2023-02-18T21:45:48.185Z,309.95
2023-02-18T21:50:55.649Z,310.25
2023-02-18T21:56:03.993Z,309.82
2023-02-18T22:01:10.666Z,309.94
2023-02-18T22:06:17.665Z,310.20
2023-02-18T22:11:24.922Z,310.10
2023-02-18T22:16:32.220Z,310.50
2023-02-18T22:21:39.308Z,310.62
2023-02-18T22:26:46.507Z,310.93
2023-02-18T22:31:53.827Z,311.05
2023-02-18T22:37:00.858Z,311.00
2023-02-18T22:42:08.028Z,311.57
2023-02-18T22:47:15.193Z,311.32
2023-02-18T22:52:22.520Z,311.75
2023-02-18T22:57:29.664Z,312.12
2023-02-18T23:02:36.876Z,312.19
2023-02-18T23:07:44.094Z,312.67
2023-02-18T23:12:51.396Z,312.98
2023-02-18T23:17:58.627Z,313.03
2023-02-18T23:23:05.830Z,313.07
2023-02-18T23:28:12.986Z,313.08
2023-02-18T23:33:20.270Z,312.89
2023-02-18T23:38:27.567Z,313.31
2023-02-18T23:43:34.744Z,313.07
2023-02-18T23:48:41.945Z,312.92
2023-02-18T23:53:49.134Z,312.75
2023-02-18T23:58:56.286Z,313.19
